sensor_id;sensor_type;location;lat;lon;timestamp;P1;durP1;ratioP1;P2;durP2;ratioP2
31091;SDS011;67728;53.122;12.776;2023-06-22T00:01:02;298.90;;;84.33;;
31091;SDS011;67728;53.122;12.776;2023-06-22T00:02:34;299.00;;;82.93;;
31091;SDS011;67728;53.122;12.776;2023-06-22T00:04:05;298.43;;;79.27;;
31091;SDS011;67728;53.122;12.776;2023-06-22T00:05:37;289.40;;;70.40;;
31091;SDS011;67728;53.122;12.776;2023-06-22T00:07:10;290.17;;;68.97;;
31091;SDS011;67728;53.122;12.776;2023-06-22T00:08:42;292.40;;;72.13;;
31091;SDS011;67728;53.122;12.776;2023-06-22T00:10:14;291.00;;;70.03;;
31091;SDS011;67728;53.122;12.776;2023-06-22T00:11:45;292.77;;;72.83;;
31091;SDS011;67728;53.122;12.776;2023-06-22T00:13:17;293.03;;;74.00;;
31091;SDS011;67728;53.122;12.776;2023-06-22T00:14:49;292.03;;;71.90;;
31091;SDS011;67728;53.122;12.776;2023-06-22T00:16:20;291.60;;;68.93;;
31091;SDS011;67728;53.122;12.776;2023-06-22T00:17:52;288.57;;;67.77;;
31091;SDS011;67728;53.122;12.776;2023-06-22T00:19:22;292.63;;;72.37;;
31091;SDS011;67728;53.122;12.776;2023-06-22T00:20:54;298.53;;;78.43;;
31091;SDS011;67728;53.122;12.776;2023-06-22T00:22:28;297.60;;;71.47;;
31091;SDS011;67728;53.122;12.776;2023-06-22T00:24:00;292.50;;;69.70;;
31091;SDS011;67728;53.122;12.776;2023-06-22T00:25:31;293.37;;;70.50;;
31091;SDS011;67728;53.122;12.776;2023-06-22T00:27:03;296.13;;;73.40;;
31091;SDS011;67728;53.122;12.776;2023-06-22T00:28:35;295.83;;;70.13;;
31091;SDS011;67728;53.122;12.776;2023-06-22T00:30:07;297.20;;;72.27;;
31091;SDS011;67728;53.122;12.776;2023-06-22T00:31:38;297.43;;;73.13;;
31091;SDS011;67728;53.122;12.776;2023-06-22T00:33:10;295.57;;;71.13;;
31091;SDS011;67728;53.122;12.776;2023-06-22T00:34:41;294.60;;;69.23;;
31091;SDS011;67728;53.122;12.776;2023-06-22T00:36:12;295.33;;;71.17;;
31091;SDS011;67728;53.122;12.776;2023-06-22T00:37:47;294.20;;;70.60;;
31091;SDS011;67728;53.122;12.776;2023-06-22T00:39:18;294.27;;;68.90;;
31091;SDS011;67728;53.122;12.776;2023-06-22T00:40:49;297.63;;;74.60;;
31091;SDS011;67728;53.122;12.776;2023-06-22T00:42:20;295.60;;;71.57;;
31091;SDS011;67728;53.122;12.776;2023-06-22T00:43:52;296.20;;;71.07;;
31091;SDS011;67728;53.122;12.776;2023-06-22T00:45:23;298.40;;;72.43;;
31091;SDS011;67728;53.122;12.776;2023-06-22T00:46:56;296.40;;;70.97;;
31091;SDS011;67728;53.122;12.776;2023-06-22T00:48:27;291.83;;;70.03;;
31091;SDS011;67728;53.122;12.776;2023-06-22T00:49:59;298.60;;;75.07;;
31091;SDS011;67728;53.122;12.776;2023-06-22T00:51:30;302.63;;;77.93;;
31091;SDS011;67728;53.122;12.776;2023-06-22T00:53:05;303.80;;;77.70;;
31091;SDS011;67728;53.122;12.776;2023-06-22T00:54:38;297.20;;;70.20;;
31091;SDS011;67728;53.122;12.776;2023-06-22T00:56:09;299.83;;;74.17;;
31091;SDS011;67728;53.122;12.776;2023-06-22T00:57:42;302.00;;;73.47;;
31091;SDS011;67728;53.122;12.776;2023-06-22T00:59:13;298.60;;;71.73;;
31091;SDS011;67728;53.122;12.776;2023-06-22T01:00:47;297.77;;;71.03;;
31091;SDS011;67728;53.122;12.776;2023-06-22T01:02:19;295.47;;;69.17;;
31091;SDS011;67728;53.122;12.776;2023-06-22T01:03:50;295.27;;;69.17;;
31091;SDS011;67728;53.122;12.776;2023-06-22T01:05:22;295.13;;;69.80;;
31091;SDS011;67728;53.122;12.776;2023-06-22T01:06:54;310.20;;;83.37;;
31091;SDS011;67728;53.122;12.776;2023-06-22T01:08:38;305.10;;;80.03;;
31091;SDS011;67728;53.122;12.776;2023-06-22T01:10:16;302.00;;;77.90;;
31091;SDS011;67728;53.122;12.776;2023-06-22T01:11:53;294.80;;;69.27;;
31091;SDS011;67728;53.122;12.776;2023-06-22T01:13:29;298.23;;;75.10;;
31091;SDS011;67728;53.122;12.776;2023-06-22T01:15:08;306.47;;;78.97;;
31091;SDS011;67728;53.122;12.776;2023-06-22T01:16:43;309.83;;;82.97;;
31091;SDS011;67728;53.122;12.776;2023-06-22T01:18:16;308.67;;;81.50;;
31091;SDS011;67728;53.122;12.776;2023-06-22T01:19:50;307.13;;;78.30;;
31091;SDS011;67728;53.122;12.776;2023-06-22T01:21:27;309.47;;;81.37;;
31091;SDS011;67728;53.122;12.776;2023-06-22T01:23:09;308.57;;;80.93;;
31091;SDS011;67728;53.122;12.776;2023-06-22T01:26:43;311.60;;;84.47;;
31091;SDS011;67728;53.122;12.776;2023-06-22T01:28:35;310.73;;;82.23;;
31091;SDS011;67728;53.122;12.776;2023-06-22T01:30:12;313.00;;;83.13;;
31091;SDS011;67728;53.122;12.776;2023-06-22T01:31:46;310.30;;;83.70;;
31091;SDS011;67728;53.122;12.776;2023-06-22T01:33:20;309.57;;;81.17;;
31091;SDS011;67728;53.122;12.776;2023-06-22T01:34:52;305.10;;;77.03;;
31091;SDS011;67728;53.122;12.776;2023-06-22T01:36:24;307.77;;;76.37;;
31091;SDS011;67728;53.122;12.776;2023-06-22T01:37:56;308.30;;;77.83;;
31091;SDS011;67728;53.122;12.776;2023-06-22T01:39:29;309.13;;;77.33;;
31091;SDS011;67728;53.122;12.776;2023-06-22T01:41:01;297.20;;;69.63;;
31091;SDS011;67728;53.122;12.776;2023-06-22T01:42:33;297.47;;;70.30;;
31091;SDS011;67728;53.122;12.776;2023-06-22T01:44:06;295.23;;;71.00;;
31091;SDS011;67728;53.122;12.776;2023-06-22T01:45:40;302.70;;;78.30;;
31091;SDS011;67728;53.122;12.776;2023-06-22T01:47:11;298.17;;;71.43;;
31091;SDS011;67728;53.122;12.776;2023-06-22T01:48:44;295.93;;;68.63;;
31091;SDS011;67728;53.122;12.776;2023-06-22T01:50:16;303.27;;;80.93;;
31091;SDS011;67728;53.122;12.776;2023-06-22T01:51:48;311.40;;;88.77;;
31091;SDS011;67728;53.122;12.776;2023-06-22T01:53:20;305.97;;;76.40;;
31091;SDS011;67728;53.122;12.776;2023-06-22T01:54:51;300.20;;;71.27;;
31091;SDS011;67728;53.122;12.776;2023-06-22T01:56:23;305.00;;;77.20;;
31091;SDS011;67728;53.122;12.776;2023-06-22T01:57:55;299.60;;;69.80;;
31091;SDS011;67728;53.122;12.776;2023-06-22T01:59:28;296.57;;;69.70;;
31091;SDS011;67728;53.122;12.776;2023-06-22T02:01:06;292.47;;;67.67;;
31091;SDS011;67728;53.122;12.776;2023-06-22T02:02:43;294.27;;;66.27;;
31091;SDS011;67728;53.122;12.776;2023-06-22T02:04:24;296.23;;;68.20;;
31091;SDS011;67728;53.122;12.776;2023-06-22T02:06:01;294.67;;;66.83;;
31091;SDS011;67728;53.122;12.776;2023-06-22T02:07:37;294.90;;;67.57;;
31091;SDS011;67728;53.122;12.776;2023-06-22T02:09:17;294.57;;;66.70;;
31091;SDS011;67728;53.122;12.776;2023-06-22T02:10:52;301.60;;;81.43;;
31091;SDS011;67728;53.122;12.776;2023-06-22T02:12:26;306.20;;;82.60;;
31091;SDS011;67728;53.122;12.776;2023-06-22T02:13:59;303.97;;;77.23;;
31091;SDS011;67728;53.122;12.776;2023-06-22T02:15:32;307.23;;;79.67;;
31091;SDS011;67728;53.122;12.776;2023-06-22T02:17:05;306.77;;;78.57;;
31091;SDS011;67728;53.122;12.776;2023-06-22T02:18:37;307.60;;;76.47;;
31091;SDS011;67728;53.122;12.776;2023-06-22T02:20:12;305.97;;;74.63;;
31091;SDS011;67728;53.122;12.776;2023-06-22T02:21:43;306.17;;;77.23;;
31091;SDS011;67728;53.122;12.776;2023-06-22T02:23:15;303.67;;;72.43;;
31091;SDS011;67728;53.122;12.776;2023-06-22T02:24:47;305.00;;;73.17;;
31091;SDS011;67728;53.122;12.776;2023-06-22T02:26:18;302.47;;;73.00;;
31091;SDS011;67728;53.122;12.776;2023-06-22T02:27:50;304.17;;;75.27;;
31091;SDS011;67728;53.122;12.776;2023-06-22T02:29:22;303.83;;;72.73;;
31091;SDS011;67728;53.122;12.776;2023-06-22T02:30:55;304.23;;;73.70;;
31091;SDS011;67728;53.122;12.776;2023-06-22T02:32:26;299.70;;;69.10;;
31091;SDS011;67728;53.122;12.776;2023-06-22T02:33:58;299.50;;;69.20;;
31091;SDS011;67728;53.122;12.776;2023-06-22T02:35:29;297.63;;;66.30;;
31091;SDS011;67728;53.122;12.776;2023-06-22T02:37:02;295.63;;;65.50;;
31091;SDS011;67728;53.122;12.776;2023-06-22T02:38:33;299.00;;;68.83;;
31091;SDS011;67728;53.122;12.776;2023-06-22T02:40:05;298.57;;;69.07;;
31091;SDS011;67728;53.122;12.776;2023-06-22T02:41:38;298.67;;;68.93;;
31091;SDS011;67728;53.122;12.776;2023-06-22T02:43:09;306.20;;;71.50;;
31091;SDS011;67728;53.122;12.776;2023-06-22T02:44:41;307.93;;;74.07;;
31091;SDS011;67728;53.122;12.776;2023-06-22T02:46:15;305.97;;;70.27;;
31091;SDS011;67728;53.122;12.776;2023-06-22T02:47:47;327.80;;;86.80;;
31091;SDS011;67728;53.122;12.776;2023-06-22T02:49:18;325.27;;;79.73;;
31091;SDS011;67728;53.122;12.776;2023-06-22T02:50:50;316.03;;;75.23;;
31091;SDS011;67728;53.122;12.776;2023-06-22T02:52:22;307.80;;;73.50;;
31091;SDS011;67728;53.122;12.776;2023-06-22T02:53:53;299.50;;;72.57;;
31091;SDS011;67728;53.122;12.776;2023-06-22T02:55:27;297.87;;;71.27;;
31091;SDS011;67728;53.122;12.776;2023-06-22T02:56:59;293.87;;;70.80;;
31091;SDS011;67728;53.122;12.776;2023-06-22T02:58:33;292.97;;;71.00;;
31091;SDS011;67728;53.122;12.776;2023-06-22T03:00:09;314.70;;;81.13;;
31091;SDS011;67728;53.122;12.776;2023-06-22T03:01:48;312.50;;;77.33;;
31091;SDS011;67728;53.122;12.776;2023-06-22T03:03:20;316.10;;;81.87;;
31091;SDS011;67728;53.122;12.776;2023-06-22T03:04:51;307.70;;;76.10;;
31091;SDS011;67728;53.122;12.776;2023-06-22T03:06:23;306.67;;;78.70;;
31091;SDS011;67728;53.122;12.776;2023-06-22T03:07:58;312.93;;;82.60;;
31091;SDS011;67728;53.122;12.776;2023-06-22T03:09:30;312.93;;;82.87;;
31091;SDS011;67728;53.122;12.776;2023-06-22T03:11:01;311.90;;;81.33;;
31091;SDS011;67728;53.122;12.776;2023-06-22T03:12:32;312.67;;;83.73;;
31091;SDS011;67728;53.122;12.776;2023-06-22T03:14:03;309.73;;;81.33;;
31091;SDS011;67728;53.122;12.776;2023-06-22T03:15:35;309.13;;;75.40;;
31091;SDS011;67728;53.122;12.776;2023-06-22T03:17:07;306.97;;;78.07;;
31091;SDS011;67728;53.122;12.776;2023-06-22T03:18:40;308.73;;;77.53;;
31091;SDS011;67728;53.122;12.776;2023-06-22T03:20:11;306.10;;;72.93;;
31091;SDS011;67728;53.122;12.776;2023-06-22T03:21:43;308.70;;;75.27;;
31091;SDS011;67728;53.122;12.776;2023-06-22T03:23:14;313.27;;;79.43;;
31091;SDS011;67728;53.122;12.776;2023-06-22T03:24:46;309.13;;;76.83;;
31091;SDS011;67728;53.122;12.776;2023-06-22T03:26:18;306.40;;;71.53;;
31091;SDS011;67728;53.122;12.776;2023-06-22T03:27:50;309.30;;;75.57;;
31091;SDS011;67728;53.122;12.776;2023-06-22T03:29:21;315.97;;;85.00;;
31091;SDS011;67728;53.122;12.776;2023-06-22T03:30:52;314.40;;;80.63;;
31091;SDS011;67728;53.122;12.776;2023-06-22T03:32:25;318.17;;;86.27;;
31091;SDS011;67728;53.122;12.776;2023-06-22T03:33:59;314.47;;;85.60;;
31091;SDS011;67728;53.122;12.776;2023-06-22T03:35:31;314.03;;;82.20;;
31091;SDS011;67728;53.122;12.776;2023-06-22T03:37:03;315.27;;;84.70;;
31091;SDS011;67728;53.122;12.776;2023-06-22T03:38:35;303.17;;;71.93;;
31091;SDS011;67728;53.122;12.776;2023-06-22T03:40:07;302.53;;;74.07;;
31091;SDS011;67728;53.122;12.776;2023-06-22T03:41:39;304.30;;;72.23;;
31091;SDS011;67728;53.122;12.776;2023-06-22T03:43:11;315.57;;;86.27;;
31091;SDS011;67728;53.122;12.776;2023-06-22T03:44:42;309.97;;;82.27;;
31091;SDS011;67728;53.122;12.776;2023-06-22T03:46:13;317.37;;;94.43;;
31091;SDS011;67728;53.122;12.776;2023-06-22T03:47:46;307.07;;;78.00;;
31091;SDS011;67728;53.122;12.776;2023-06-22T03:49:18;306.07;;;73.57;;
31091;SDS011;67728;53.122;12.776;2023-06-22T03:50:49;300.47;;;71.30;;
31091;SDS011;67728;53.122;12.776;2023-06-22T03:52:21;306.77;;;71.87;;
31091;SDS011;67728;53.122;12.776;2023-06-22T03:53:53;306.40;;;78.47;;
31091;SDS011;67728;53.122;12.776;2023-06-22T03:55:24;320.87;;;91.87;;
31091;SDS011;67728;53.122;12.776;2023-06-22T03:56:56;305.43;;;76.43;;
31091;SDS011;67728;53.122;12.776;2023-06-22T03:58:28;302.03;;;69.10;;
31091;SDS011;67728;53.122;12.776;2023-06-22T04:00:03;303.43;;;76.73;;
31091;SDS011;67728;53.122;12.776;2023-06-22T04:01:36;311.10;;;90.17;;
31091;SDS011;67728;53.122;12.776;2023-06-22T04:03:09;309.57;;;89.17;;
31091;SDS011;67728;53.122;12.776;2023-06-22T04:04:39;303.93;;;78.67;;
31091;SDS011;67728;53.122;12.776;2023-06-22T04:06:11;292.37;;;67.83;;
31091;SDS011;67728;53.122;12.776;2023-06-22T04:07:43;289.63;;;68.67;;
31091;SDS011;67728;53.122;12.776;2023-06-22T04:09:14;289.23;;;68.93;;
31091;SDS011;67728;53.122;12.776;2023-06-22T04:10:46;290.97;;;65.43;;
31091;SDS011;67728;53.122;12.776;2023-06-22T04:12:17;288.13;;;65.17;;
31091;SDS011;67728;53.122;12.776;2023-06-22T04:13:49;293.27;;;68.93;;
31091;SDS011;67728;53.122;12.776;2023-06-22T04:15:21;297.33;;;75.53;;
31091;SDS011;67728;53.122;12.776;2023-06-22T04:16:53;295.70;;;70.10;;
31091;SDS011;67728;53.122;12.776;2023-06-22T04:18:26;316.20;;;100.43;;
31091;SDS011;67728;53.122;12.776;2023-06-22T04:19:57;301.50;;;78.43;;
31091;SDS011;67728;53.122;12.776;2023-06-22T04:21:29;304.97;;;80.83;;
31091;SDS011;67728;53.122;12.776;2023-06-22T04:23:00;299.80;;;74.60;;
31091;SDS011;67728;53.122;12.776;2023-06-22T04:24:32;302.20;;;76.53;;
31091;SDS011;67728;53.122;12.776;2023-06-22T04:26:04;299.83;;;74.27;;
31091;SDS011;67728;53.122;12.776;2023-06-22T04:27:35;299.00;;;71.90;;
31091;SDS011;67728;53.122;12.776;2023-06-22T04:29:07;294.90;;;67.80;;
31091;SDS011;67728;53.122;12.776;2023-06-22T04:30:39;294.40;;;67.07;;
31091;SDS011;67728;53.122;12.776;2023-06-22T04:32:16;294.17;;;66.70;;
31091;SDS011;67728;53.122;12.776;2023-06-22T04:33:49;297.60;;;67.07;;
31091;SDS011;67728;53.122;12.776;2023-06-22T04:35:21;293.90;;;68.33;;
31091;SDS011;67728;53.122;12.776;2023-06-22T04:36:53;294.30;;;72.90;;
31091;SDS011;67728;53.122;12.776;2023-06-22T04:38:25;294.07;;;69.43;;
31091;SDS011;67728;53.122;12.776;2023-06-22T04:39:57;289.60;;;65.23;;
31091;SDS011;67728;53.122;12.776;2023-06-22T04:41:28;289.17;;;64.10;;
31091;SDS011;67728;53.122;12.776;2023-06-22T04:43:07;291.00;;;67.53;;
31091;SDS011;67728;53.122;12.776;2023-06-22T04:44:40;314.23;;;77.87;;
31091;SDS011;67728;53.122;12.776;2023-06-22T04:46:11;292.03;;;68.07;;
31091;SDS011;67728;53.122;12.776;2023-06-22T04:47:43;289.90;;;65.47;;
31091;SDS011;67728;53.122;12.776;2023-06-22T04:49:17;298.13;;;69.80;;
31091;SDS011;67728;53.122;12.776;2023-06-22T04:50:50;296.57;;;72.33;;
31091;SDS011;67728;53.122;12.776;2023-06-22T04:52:21;300.57;;;71.13;;
31091;SDS011;67728;53.122;12.776;2023-06-22T04:53:54;299.97;;;74.67;;
31091;SDS011;67728;53.122;12.776;2023-06-22T04:55:31;295.73;;;69.00;;
31091;SDS011;67728;53.122;12.776;2023-06-22T04:57:03;299.80;;;81.20;;
31091;SDS011;67728;53.122;12.776;2023-06-22T04:58:39;292.80;;;72.13;;
31091;SDS011;67728;53.122;12.776;2023-06-22T05:00:11;296.33;;;74.20;;
31091;SDS011;67728;53.122;12.776;2023-06-22T05:01:47;292.53;;;72.90;;
31091;SDS011;67728;53.122;12.776;2023-06-22T05:03:18;292.07;;;74.83;;
31091;SDS011;67728;53.122;12.776;2023-06-22T05:04:51;290.87;;;72.17;;
31091;SDS011;67728;53.122;12.776;2023-06-22T05:06:26;289.80;;;69.83;;
31091;SDS011;67728;53.122;12.776;2023-06-22T05:08:00;298.37;;;76.23;;
31091;SDS011;67728;53.122;12.776;2023-06-22T05:09:32;301.13;;;75.60;;
31091;SDS011;67728;53.122;12.776;2023-06-22T05:11:04;303.30;;;80.93;;
31091;SDS011;67728;53.122;12.776;2023-06-22T05:12:36;300.33;;;74.10;;
31091;SDS011;67728;53.122;12.776;2023-06-22T05:14:08;299.10;;;74.73;;
31091;SDS011;67728;53.122;12.776;2023-06-22T05:15:40;299.83;;;76.07;;
31091;SDS011;67728;53.122;12.776;2023-06-22T05:17:12;299.37;;;76.40;;
31091;SDS011;67728;53.122;12.776;2023-06-22T05:18:44;303.67;;;82.53;;
31091;SDS011;67728;53.122;12.776;2023-06-22T05:20:17;300.97;;;79.77;;
31091;SDS011;67728;53.122;12.776;2023-06-22T05:21:49;300.10;;;76.83;;
31091;SDS011;67728;53.122;12.776;2023-06-22T05:23:21;297.80;;;75.90;;
31091;SDS011;67728;53.122;12.776;2023-06-22T05:24:52;292.43;;;72.93;;
31091;SDS011;67728;53.122;12.776;2023-06-22T05:26:24;294.07;;;73.63;;
31091;SDS011;67728;53.122;12.776;2023-06-22T05:27:55;293.07;;;73.03;;
31091;SDS011;67728;53.122;12.776;2023-06-22T05:29:27;295.50;;;74.17;;
31091;SDS011;67728;53.122;12.776;2023-06-22T05:30:59;308.00;;;97.40;;
31091;SDS011;67728;53.122;12.776;2023-06-22T05:32:30;300.00;;;82.77;;
31091;SDS011;67728;53.122;12.776;2023-06-22T05:34:02;296.60;;;75.43;;
31091;SDS011;67728;53.122;12.776;2023-06-22T05:35:35;296.03;;;75.13;;
31091;SDS011;67728;53.122;12.776;2023-06-22T05:37:06;308.43;;;94.10;;
31091;SDS011;67728;53.122;12.776;2023-06-22T05:38:40;311.47;;;94.23;;
31091;SDS011;67728;53.122;12.776;2023-06-22T05:40:12;306.50;;;89.97;;
31091;SDS011;67728;53.122;12.776;2023-06-22T05:41:44;304.50;;;87.20;;
31091;SDS011;67728;53.122;12.776;2023-06-22T05:43:17;307.03;;;93.83;;
31091;SDS011;67728;53.122;12.776;2023-06-22T05:44:48;302.90;;;84.13;;
31091;SDS011;67728;53.122;12.776;2023-06-22T05:46:20;309.30;;;95.10;;
31091;SDS011;67728;53.122;12.776;2023-06-22T05:47:51;308.03;;;91.67;;
31091;SDS011;67728;53.122;12.776;2023-06-22T05:49:22;308.03;;;93.57;;
31091;SDS011;67728;53.122;12.776;2023-06-22T05:51:00;304.63;;;86.70;;
31091;SDS011;67728;53.122;12.776;2023-06-22T05:52:32;301.67;;;83.67;;
31091;SDS011;67728;53.122;12.776;2023-06-22T05:54:04;291.67;;;77.63;;
31091;SDS011;67728;53.122;12.776;2023-06-22T05:55:38;290.40;;;76.43;;
31091;SDS011;67728;53.122;12.776;2023-06-22T05:57:09;291.53;;;74.67;;
31091;SDS011;67728;53.122;12.776;2023-06-22T05:58:41;289.37;;;75.43;;
31091;SDS011;67728;53.122;12.776;2023-06-22T06:00:13;298.30;;;85.77;;
31091;SDS011;67728;53.122;12.776;2023-06-22T06:01:45;288.00;;;77.17;;
31091;SDS011;67728;53.122;12.776;2023-06-22T06:03:19;286.97;;;74.40;;
31091;SDS011;67728;53.122;12.776;2023-06-22T06:04:51;290.53;;;77.00;;
31091;SDS011;67728;53.122;12.776;2023-06-22T06:06:25;290.77;;;78.43;;
31091;SDS011;67728;53.122;12.776;2023-06-22T06:07:58;286.10;;;74.83;;
31091;SDS011;67728;53.122;12.776;2023-06-22T06:09:31;289.17;;;80.90;;
31091;SDS011;67728;53.122;12.776;2023-06-22T06:11:02;291.53;;;83.90;;
31091;SDS011;67728;53.122;12.776;2023-06-22T06:12:34;309.17;;;99.27;;
31091;SDS011;67728;53.122;12.776;2023-06-22T06:14:06;302.83;;;94.57;;
31091;SDS011;67728;53.122;12.776;2023-06-22T06:15:37;300.00;;;90.87;;
31091;SDS011;67728;53.122;12.776;2023-06-22T06:17:10;291.70;;;82.57;;
31091;SDS011;67728;53.122;12.776;2023-06-22T06:18:41;291.57;;;84.10;;
31091;SDS011;67728;53.122;12.776;2023-06-22T06:20:13;290.30;;;81.93;;
31091;SDS011;67728;53.122;12.776;2023-06-22T06:21:46;286.80;;;80.47;;
31091;SDS011;67728;53.122;12.776;2023-06-22T06:23:18;284.60;;;81.03;;
31091;SDS011;67728;53.122;12.776;2023-06-22T06:24:49;305.60;;;107.50;;
31091;SDS011;67728;53.122;12.776;2023-06-22T06:26:21;301.43;;;96.23;;
31091;SDS011;67728;53.122;12.776;2023-06-22T06:27:58;296.17;;;91.37;;
31091;SDS011;67728;53.122;12.776;2023-06-22T06:29:29;292.27;;;87.47;;
31091;SDS011;67728;53.122;12.776;2023-06-22T06:31:01;289.33;;;84.67;;
31091;SDS011;67728;53.122;12.776;2023-06-22T06:32:37;300.77;;;101.63;;
31091;SDS011;67728;53.122;12.776;2023-06-22T06:34:09;302.03;;;101.57;;
31091;SDS011;67728;53.122;12.776;2023-06-22T06:35:41;306.57;;;101.00;;
31091;SDS011;67728;53.122;12.776;2023-06-22T06:37:14;294.50;;;90.20;;
31091;SDS011;67728;53.122;12.776;2023-06-22T06:38:45;306.47;;;101.33;;
31091;SDS011;67728;53.122;12.776;2023-06-22T06:40:17;304.20;;;100.67;;
31091;SDS011;67728;53.122;12.776;2023-06-22T06:41:49;287.83;;;84.80;;
31091;SDS011;67728;53.122;12.776;2023-06-22T06:43:21;304.63;;;126.67;;
31091;SDS011;67728;53.122;12.776;2023-06-22T06:44:53;300.23;;;115.60;;
31091;SDS011;67728;53.122;12.776;2023-06-22T06:46:25;294.30;;;102.37;;
31091;SDS011;67728;53.122;12.776;2023-06-22T06:47:57;293.23;;;103.10;;
31091;SDS011;67728;53.122;12.776;2023-06-22T06:49:28;295.53;;;96.40;;
31091;SDS011;67728;53.122;12.776;2023-06-22T06:51:00;297.43;;;112.73;;
31091;SDS011;67728;53.122;12.776;2023-06-22T06:52:33;293.00;;;99.83;;
31091;SDS011;67728;53.122;12.776;2023-06-22T06:54:05;289.87;;;98.33;;
31091;SDS011;67728;53.122;12.776;2023-06-22T06:55:37;291.93;;;101.40;;
31091;SDS011;67728;53.122;12.776;2023-06-22T06:57:08;294.43;;;106.17;;
31091;SDS011;67728;53.122;12.776;2023-06-22T06:58:43;287.10;;;95.17;;
31091;SDS011;67728;53.122;12.776;2023-06-22T07:00:15;288.13;;;100.33;;
31091;SDS011;67728;53.122;12.776;2023-06-22T07:01:49;286.90;;;98.40;;
31091;SDS011;67728;53.122;12.776;2023-06-22T07:03:21;295.93;;;105.50;;
31091;SDS011;67728;53.122;12.776;2023-06-22T07:04:53;288.67;;;97.17;;
31091;SDS011;67728;53.122;12.776;2023-06-22T07:06:25;291.23;;;99.47;;
31091;SDS011;67728;53.122;12.776;2023-06-22T07:08:00;290.47;;;98.37;;
31091;SDS011;67728;53.122;12.776;2023-06-22T07:09:32;304.03;;;110.70;;
31091;SDS011;67728;53.122;12.776;2023-06-22T07:11:04;292.53;;;102.70;;
31091;SDS011;67728;53.122;12.776;2023-06-22T07:12:35;288.87;;;99.57;;
31091;SDS011;67728;53.122;12.776;2023-06-22T07:14:06;291.20;;;108.17;;
31091;SDS011;67728;53.122;12.776;2023-06-22T07:15:38;285.37;;;95.10;;
31091;SDS011;67728;53.122;12.776;2023-06-22T07:17:09;285.63;;;98.77;;
31091;SDS011;67728;53.122;12.776;2023-06-22T07:18:41;282.17;;;93.00;;
31091;SDS011;67728;53.122;12.776;2023-06-22T07:20:12;285.27;;;97.87;;
31091;SDS011;67728;53.122;12.776;2023-06-22T07:21:44;289.20;;;106.80;;
31091;SDS011;67728;53.122;12.776;2023-06-22T07:23:17;286.80;;;101.60;;
31091;SDS011;67728;53.122;12.776;2023-06-22T07:24:49;284.20;;;100.80;;
31091;SDS011;67728;53.122;12.776;2023-06-22T07:26:20;285.73;;;102.03;;
31091;SDS011;67728;53.122;12.776;2023-06-22T07:27:58;283.00;;;93.20;;
31091;SDS011;67728;53.122;12.776;2023-06-22T07:29:31;284.37;;;93.93;;
31091;SDS011;67728;53.122;12.776;2023-06-22T07:31:03;281.47;;;94.27;;
31091;SDS011;67728;53.122;12.776;2023-06-22T07:32:35;286.23;;;98.40;;
31091;SDS011;67728;53.122;12.776;2023-06-22T07:34:07;287.53;;;100.97;;
31091;SDS011;67728;53.122;12.776;2023-06-22T07:35:38;295.67;;;107.20;;
31091;SDS011;67728;53.122;12.776;2023-06-22T07:37:10;286.77;;;97.10;;
31091;SDS011;67728;53.122;12.776;2023-06-22T07:38:43;291.60;;;106.23;;
31091;SDS011;67728;53.122;12.776;2023-06-22T07:40:15;288.10;;;100.17;;
31091;SDS011;67728;53.122;12.776;2023-06-22T07:41:47;283.87;;;94.63;;
31091;SDS011;67728;53.122;12.776;2023-06-22T07:43:18;283.50;;;91.17;;
31091;SDS011;67728;53.122;12.776;2023-06-22T07:44:50;280.23;;;88.27;;
31091;SDS011;67728;53.122;12.776;2023-06-22T07:46:22;284.67;;;92.63;;
31091;SDS011;67728;53.122;12.776;2023-06-22T07:47:53;286.27;;;98.30;;
31091;SDS011;67728;53.122;12.776;2023-06-22T07:49:25;282.80;;;88.60;;
31091;SDS011;67728;53.122;12.776;2023-06-22T07:50:57;281.90;;;90.43;;
31091;SDS011;67728;53.122;12.776;2023-06-22T07:52:28;282.70;;;88.60;;
31091;SDS011;67728;53.122;12.776;2023-06-22T07:54:03;282.13;;;88.20;;
31091;SDS011;67728;53.122;12.776;2023-06-22T07:55:34;285.27;;;91.23;;
31091;SDS011;67728;53.122;12.776;2023-06-22T07:57:06;282.03;;;88.00;;
31091;SDS011;67728;53.122;12.776;2023-06-22T07:58:38;309.83;;;97.37;;
31091;SDS011;67728;53.122;12.776;2023-06-22T08:00:10;286.47;;;92.27;;
31091;SDS011;67728;53.122;12.776;2023-06-22T08:01:44;283.47;;;91.07;;
31091;SDS011;67728;53.122;12.776;2023-06-22T08:03:19;282.43;;;90.53;;
31091;SDS011;67728;53.122;12.776;2023-06-22T08:04:50;286.00;;;92.97;;
31091;SDS011;67728;53.122;12.776;2023-06-22T08:06:22;281.37;;;90.20;;
31091;SDS011;67728;53.122;12.776;2023-06-22T08:07:54;282.97;;;94.97;;
31091;SDS011;67728;53.122;12.776;2023-06-22T08:09:27;291.70;;;106.07;;
31091;SDS011;67728;53.122;12.776;2023-06-22T08:10:59;282.70;;;94.10;;
31091;SDS011;67728;53.122;12.776;2023-06-22T08:12:31;282.47;;;94.73;;
31091;SDS011;67728;53.122;12.776;2023-06-22T08:14:03;278.93;;;94.00;;
31091;SDS011;67728;53.122;12.776;2023-06-22T08:15:34;282.43;;;98.40;;
31091;SDS011;67728;53.122;12.776;2023-06-22T08:17:06;281.00;;;99.23;;
31091;SDS011;67728;53.122;12.776;2023-06-22T08:18:38;278.53;;;99.73;;
31091;SDS011;67728;53.122;12.776;2023-06-22T08:20:10;280.90;;;100.17;;
31091;SDS011;67728;53.122;12.776;2023-06-22T08:21:42;282.80;;;102.07;;
31091;SDS011;67728;53.122;12.776;2023-06-22T08:23:14;281.60;;;102.50;;
31091;SDS011;67728;53.122;12.776;2023-06-22T08:24:47;280.90;;;103.27;;
31091;SDS011;67728;53.122;12.776;2023-06-22T08:26:19;293.20;;;123.50;;
31091;SDS011;67728;53.122;12.776;2023-06-22T08:27:51;288.23;;;115.83;;
31091;SDS011;67728;53.122;12.776;2023-06-22T08:29:23;291.20;;;122.57;;
31091;SDS011;67728;53.122;12.776;2023-06-22T08:30:55;280.60;;;106.27;;
31091;SDS011;67728;53.122;12.776;2023-06-22T08:32:26;277.43;;;102.63;;
31091;SDS011;67728;53.122;12.776;2023-06-22T08:33:58;278.10;;;104.80;;
31091;SDS011;67728;53.122;12.776;2023-06-22T08:35:30;277.10;;;104.30;;
31091;SDS011;67728;53.122;12.776;2023-06-22T08:37:01;289.43;;;128.20;;
31091;SDS011;67728;53.122;12.776;2023-06-22T08:38:36;275.90;;;104.03;;
31091;SDS011;67728;53.122;12.776;2023-06-22T08:40:09;277.27;;;107.27;;
31091;SDS011;67728;53.122;12.776;2023-06-22T08:41:42;274.37;;;105.00;;
31091;SDS011;67728;53.122;12.776;2023-06-22T08:43:13;274.57;;;103.90;;
31091;SDS011;67728;53.122;12.776;2023-06-22T08:44:45;274.63;;;101.87;;
31091;SDS011;67728;53.122;12.776;2023-06-22T08:46:17;271.87;;;99.40;;
31091;SDS011;67728;53.122;12.776;2023-06-22T08:47:53;281.53;;;112.70;;